createdAt,value
2023-04-08T00:02:16.362Z,91.35
2023-04-08T00:04:45.560Z,91.50
2023-04-08T00:07:12.522Z,91.63
2023-04-08T00:09:39.371Z,91.28
2023-04-08T00:12:09.461Z,91.38
2023-04-08T00:14:38.522Z,91.73
2023-04-08T00:17:05.249Z,91.96
2023-04-08T00:19:36.173Z,91.82
2023-04-08T00:22:05.632Z,91.96
2023-04-08T00:24:34.765Z,91.60
2023-04-08T00:27:02.947Z,92.10
2023-04-08T00:29:29.737Z,92.29
2023-04-08T00:31:56.743Z,91.97
2023-04-08T00:34:26.210Z,92.47
2023-04-08T00:36:56.507Z,92.32
2023-04-08T00:39:25.814Z,92.55
2023-04-08T00:41:52.727Z,92.43
2023-04-08T00:44:21.594Z,92.31
2023-04-08T00:46:48.887Z,92.88
2023-04-08T00:49:17.972Z,92.89
2023-04-08T00:51:44.800Z,92.86
2023-04-08T00:54:11.674Z,92.56
2023-04-08T00:56:38.715Z,93.02
2023-04-08T00:59:06.146Z,93.31
2023-04-08T01:01:45.258Z,92.99
2023-04-08T01:04:31.721Z,92.93
2023-04-08T01:07:33.880Z,93.03
2023-04-08T01:10:08.233Z,93.08
2023-04-08T01:12:42.484Z,93.59
2023-04-08T01:15:12.313Z,93.09
2023-04-08T01:17:41.890Z,93.61
2023-04-08T01:20:09.960Z,93.15
2023-04-08T01:23:02.059Z,93.44
2023-04-08T01:25:35.853Z,93.33
2023-04-08T01:28:09.204Z,93.17
2023-04-08T01:30:41.098Z,93.09
2023-04-08T01:33:08.570Z,93.35
2023-04-08T01:35:38.526Z,93.63
2023-04-08T01:38:11.924Z,93.44
2023-04-08T01:40:41.282Z,93.37
2023-04-08T01:43:10.172Z,93.34
2023-04-08T01:45:39.362Z,93.67
2023-04-08T01:48:09.449Z,93.88
2023-04-08T01:50:38.076Z,93.42
2023-04-08T01:53:06.254Z,93.97
2023-04-08T01:55:36.749Z,93.85
2023-04-08T01:58:07.350Z,94.34
2023-04-08T02:00:39.910Z,94.58
2023-04-08T02:03:08.526Z,94.29
2023-04-08T02:05:35.488Z,94.24
2023-04-08T02:08:02.469Z,94.72
2023-04-08T02:10:31.599Z,94.66
2023-04-08T02:12:58.341Z,94.64
2023-04-08T02:15:32.168Z,95.32
2023-04-08T02:18:09.203Z,95.06
2023-04-08T02:20:44.321Z,95.29
2023-04-08T02:23:18.202Z,95.51
2023-04-08T02:25:47.158Z,95.41
2023-04-08T02:28:16.023Z,95.79
2023-04-08T02:30:44.593Z,95.90
2023-04-08T02:33:14.217Z,95.72
2023-04-08T02:35:42.206Z,95.97
2023-04-08T02:38:10.953Z,95.98
2023-04-08T02:40:37.912Z,96.10
2023-04-08T02:43:04.768Z,96.04
2023-04-08T02:45:37.807Z,96.17
2023-04-08T02:48:06.578Z,96.74
2023-04-08T02:50:36.256Z,97.27
2023-04-08T02:53:03.019Z,97.42
2023-04-08T02:55:29.939Z,97.45
2023-04-08T02:57:56.800Z,97.68
2023-04-08T03:00:23.829Z,97.62
2023-04-08T03:02:50.920Z,97.49
2023-04-08T03:05:18.203Z,97.73
2023-04-08T03:07:47.514Z,97.23
2023-04-08T03:10:14.499Z,97.47
2023-04-08T03:12:41.493Z,96.92
2023-04-08T03:15:11.562Z,97.10
2023-04-08T03:17:38.376Z,96.94
2023-04-08T03:20:06.414Z,97.36
2023-04-08T03:22:34.339Z,97.09
2023-04-08T03:25:01.304Z,97.25
2023-04-08T03:27:30.197Z,96.88
2023-04-08T03:29:59.545Z,97.01
2023-04-08T03:32:29.337Z,96.57
2023-04-08T03:34:56.201Z,96.60
2023-04-08T03:37:23.216Z,96.16
2023-04-08T03:39:50.184Z,96.57
2023-04-08T03:42:16.989Z,96.44
2023-04-08T03:44:43.829Z,96.51
2023-04-08T03:47:12.905Z,96.91
2023-04-08T03:49:42.024Z,96.63
2023-04-08T03:52:08.940Z,96.41
2023-04-08T03:54:35.789Z,97.04
2023-04-08T03:57:02.416Z,96.83
2023-04-08T03:59:34.212Z,96.92
2023-04-08T04:02:01.078Z,97.15
2023-04-08T04:04:27.995Z,96.71
2023-04-08T04:06:54.753Z,96.85
2023-04-08T04:09:21.440Z,96.88
2023-04-08T04:11:48.276Z,96.74
2023-04-08T04:14:15.008Z,96.77
2023-04-08T04:16:43.840Z,97.25
2023-04-08T04:19:10.608Z,96.75
2023-04-08T04:21:39.689Z,96.54
2023-04-08T04:24:06.726Z,96.57
2023-04-08T04:26:33.446Z,96.75
2023-04-08T04:29:00.474Z,96.61
2023-04-08T04:31:30.325Z,96.77
2023-04-08T04:33:57.268Z,96.42
2023-04-08T04:36:26.554Z,96.72
2023-04-08T04:38:53.935Z,96.96
2023-04-08T04:41:22.075Z,96.86
2023-04-08T04:43:48.957Z,96.35
2023-04-08T04:46:20.637Z,96.45
2023-04-08T04:48:50.374Z,96.59
2023-04-08T04:51:20.917Z,96.55
2023-04-08T04:53:50.283Z,96.93
2023-04-08T04:56:17.239Z,96.79
2023-04-08T04:58:46.834Z,96.77
2023-04-08T05:01:18.385Z,97.00
2023-04-08T05:03:48.370Z,96.68
2023-04-08T05:06:15.756Z,97.21
2023-04-08T05:08:42.633Z,97.30
2023-04-08T05:11:10.958Z,97.29
2023-04-08T05:13:41.999Z,97.20
2023-04-08T05:16:10.303Z,96.85
2023-04-08T05:18:39.975Z,96.97
2023-04-08T05:21:08.812Z,97.03
2023-04-08T05:23:36.085Z,97.21
2023-04-08T05:26:02.927Z,97.19
2023-04-08T05:28:29.804Z,97.12
2023-04-08T05:30:56.741Z,97.55
2023-04-08T05:33:23.582Z,97.57
2023-04-08T05:35:55.164Z,97.75
2023-04-08T05:38:21.916Z,97.13
2023-04-08T05:40:48.607Z,97.67
2023-04-08T05:43:17.760Z,97.69
2023-04-08T05:45:44.840Z,97.35
2023-04-08T05:48:11.964Z,97.44
2023-04-08T05:50:41.070Z,97.23
2023-04-08T05:53:07.852Z,97.23
2023-04-08T05:55:49.048Z,97.43
2023-04-08T05:58:28.704Z,97.27
2023-04-08T06:00:55.704Z,97.41
2023-04-08T06:03:23.029Z,97.13
2023-04-08T06:05:50.315Z,96.96
2023-04-08T06:08:19.873Z,96.94
2023-04-08T06:10:52.843Z,96.93
2023-04-08T06:13:21.157Z,96.61
2023-04-08T06:15:51.127Z,96.38
2023-04-08T06:18:17.935Z,96.74
2023-04-08T06:20:44.759Z,96.17
2023-04-08T06:23:11.717Z,96.09
2023-04-08T06:25:38.541Z,96.11
2023-04-08T06:28:05.430Z,96.01
2023-04-08T06:30:32.294Z,96.55
2023-04-08T06:32:59.675Z,96.38
2023-04-08T06:35:33.330Z,96.54
2023-04-08T06:38:03.471Z,96.52
2023-04-08T06:40:32.914Z,96.52
2023-04-08T06:42:59.628Z,96.56
2023-04-08T06:45:26.497Z,96.43
2023-04-08T06:47:53.444Z,96.41
2023-04-08T06:50:20.557Z,96.17
2023-04-08T06:52:53.243Z,96.25
2023-04-08T06:55:20.006Z,96.19
2023-04-08T06:57:46.815Z,95.82
2023-04-08T07:00:13.965Z,96.09
2023-04-08T07:02:41.150Z,95.73
2023-04-08T07:05:11.396Z,96.01
2023-04-08T07:07:40.450Z,95.66
2023-04-08T07:10:11.117Z,95.67
2023-04-08T07:12:38.089Z,95.92
2023-04-08T07:15:05.234Z,96.19
2023-04-08T07:17:32.571Z,95.92
2023-04-08T07:19:59.487Z,95.99
2023-04-08T07:22:26.214Z,95.38
2023-04-08T07:24:53.021Z,95.58
2023-04-08T07:27:19.804Z,95.34
2023-04-08T07:29:46.627Z,95.30
2023-04-08T07:32:16.294Z,95.19
2023-04-08T07:34:45.649Z,95.12
2023-04-08T07:37:12.323Z,94.76
2023-04-08T07:39:39.134Z,94.70
2023-04-08T07:42:06.141Z,94.37
2023-04-08T07:44:41.245Z,94.41
2023-04-08T07:47:13.995Z,94.49
2023-04-08T07:49:50.778Z,94.15
2023-04-08T07:52:21.569Z,94.47
2023-04-08T07:54:55.016Z,93.96
2023-04-08T07:57:23.479Z,93.68
2023-04-08T07:59:50.664Z,94.08
2023-04-08T08:02:19.798Z,93.90
2023-04-08T08:04:46.632Z,93.81
2023-04-08T08:07:13.468Z,93.24
2023-04-08T08:09:40.145Z,93.36
2023-04-08T08:12:07.092Z,93.14
2023-04-08T08:14:33.767Z,93.64
2023-04-08T08:17:01.669Z,93.52
2023-04-08T08:19:30.850Z,93.40
2023-04-08T08:21:58.051Z,93.12
2023-04-08T08:24:26.028Z,93.04
2023-04-08T08:26:55.612Z,93.39
2023-04-08T08:29:22.229Z,92.67
2023-04-08T08:31:48.923Z,92.66
2023-04-08T08:34:17.719Z,92.79
2023-04-08T08:36:44.389Z,92.24
2023-04-08T08:39:13.455Z,92.26
2023-04-08T08:41:41.254Z,92.46
2023-04-08T08:44:11.116Z,92.11
2023-04-08T08:46:42.528Z,92.24
2023-04-08T08:49:09.140Z,91.57
2023-04-08T08:51:36.272Z,91.49
2023-04-08T08:54:06.609Z,91.03
2023-04-08T08:56:34.466Z,91.12
2023-04-08T08:59:01.203Z,91.03
2023-04-08T09:01:38.367Z,90.82
2023-04-08T09:04:19.917Z,90.40
2023-04-08T09:06:52.674Z,90.34
2023-04-08T09:09:21.603Z,90.96
2023-04-08T09:11:48.204Z,90.75
2023-04-08T09:14:25.615Z,90.94
2023-04-08T09:16:53.025Z,90.26
2023-04-08T09:19:19.823Z,89.50
2023-04-08T09:22:04.129Z,89.36
2023-04-08T09:24:32.127Z,88.61
2023-04-08T09:26:58.908Z,87.70
2023-04-08T09:29:29.861Z,86.36
2023-04-08T09:32:01.556Z,85.45
2023-04-08T09:34:30.870Z,85.59
2023-04-08T09:36:57.482Z,86.04
2023-04-08T09:39:24.433Z,86.16
2023-04-08T09:41:52.388Z,85.90
2023-04-08T09:44:26.646Z,85.44
2023-04-08T09:47:08.449Z,85.12
2023-04-08T09:49:46.987Z,84.63
2023-04-08T09:52:33.599Z,84.90
2023-04-08T09:55:09.332Z,84.06
2023-04-08T09:57:43.389Z,83.57
2023-04-08T10:00:17.526Z,83.83
2023-04-08T10:02:53.908Z,84.30
2023-04-08T10:05:22.374Z,84.62
2023-04-08T10:07:55.230Z,83.98
2023-04-08T10:10:29.063Z,83.23
2023-04-08T10:12:56.912Z,83.19
2023-04-08T10:15:26.820Z,82.37
2023-04-08T10:17:57.365Z,82.99
2023-04-08T10:21:03.441Z,82.99
2023-04-08T10:23:55.600Z,82.42
2023-04-08T10:26:35.524Z,82.29
2023-04-08T10:29:27.272Z,82.66
2023-04-08T10:31:55.932Z,81.96
2023-04-08T10:34:27.038Z,80.62
2023-04-08T10:37:00.357Z,79.77
2023-04-08T10:39:27.847Z,79.60
2023-04-08T10:41:54.947Z,79.44
2023-04-08T10:44:24.726Z,78.92
2023-04-08T10:46:56.499Z,79.14
2023-04-08T10:49:34.130Z,79.09
2023-04-08T10:52:01.031Z,79.18
2023-04-08T10:54:29.319Z,78.89
2023-04-08T10:56:56.215Z,77.94
2023-04-08T10:59:34.924Z,77.25
2023-04-08T11:02:02.639Z,76.98
2023-04-08T11:04:35.016Z,76.94
2023-04-08T11:07:09.298Z,77.09
2023-04-08T11:09:37.930Z,76.75
2023-04-08T11:12:04.826Z,76.31
2023-04-08T11:14:33.293Z,75.89
2023-04-08T11:17:02.841Z,76.00
2023-04-08T11:19:33.142Z,75.42
2023-04-08T11:22:01.356Z,75.34
2023-04-08T11:24:30.393Z,75.42
2023-04-08T11:26:58.031Z,74.96
2023-04-08T11:29:25.611Z,74.83
2023-04-08T11:31:53.391Z,74.46
2023-04-08T11:34:24.692Z,73.77
2023-04-08T11:36:55.506Z,73.55
2023-04-08T11:39:26.432Z,73.07
2023-04-08T11:41:53.297Z,73.39
2023-04-08T11:44:19.920Z,72.57
2023-04-08T11:46:57.278Z,72.36
2023-04-08T11:49:24.296Z,72.43
2023-04-08T11:51:59.404Z,72.32
2023-04-08T11:54:30.617Z,72.09
2023-04-08T11:56:58.438Z,71.73
2023-04-08T11:59:27.433Z,71.10
2023-04-08T12:01:56.080Z,70.65
2023-04-08T12:04:22.905Z,69.92
2023-04-08T12:06:52.443Z,69.10
2023-04-08T12:09:19.391Z,69.09
2023-04-08T12:11:48.540Z,67.92
2023-04-08T12:14:15.278Z,66.86
2023-04-08T12:16:41.953Z,67.60
2023-04-08T12:19:10.118Z,66.94
2023-04-08T12:21:36.808Z,66.71
2023-04-08T12:24:03.471Z,65.47
2023-04-08T12:26:32.350Z,65.93
2023-04-08T12:28:58.913Z,65.62
2023-04-08T12:31:28.543Z,65.00
2023-04-08T12:33:55.245Z,64.71
2023-04-08T12:36:24.858Z,64.59
2023-04-08T12:38:54.120Z,63.95
2023-04-08T12:41:20.664Z,63.21
2023-04-08T12:43:47.231Z,62.72
2023-04-08T12:46:13.831Z,61.69
2023-04-08T12:48:40.933Z,61.03
2023-04-08T12:51:10.267Z,59.47
2023-04-08T12:53:36.921Z,59.48
2023-04-08T12:56:03.746Z,59.59
2023-04-08T12:58:30.638Z,59.39
2023-04-08T13:00:57.289Z,59.89
2023-04-08T13:03:24.082Z,59.79
2023-04-08T13:05:55.585Z,59.88
2023-04-08T13:08:22.369Z,60.76
2023-04-08T13:10:49.070Z,60.91
2023-04-08T13:13:18.631Z,59.63
2023-04-08T13:15:47.830Z,59.70
2023-04-08T13:18:17.099Z,60.02
2023-04-08T13:20:43.711Z,59.68
2023-04-08T13:23:10.445Z,59.58
2023-04-08T13:25:39.294Z,59.54
2023-04-08T13:28:06.043Z,59.80
2023-04-08T13:30:32.624Z,59.19
2023-04-08T13:32:59.266Z,59.51
2023-04-08T13:35:29.054Z,59.05
2023-04-08T13:37:58.193Z,58.58
2023-04-08T13:40:27.175Z,58.60
2023-04-08T13:42:54.410Z,58.05
2023-04-08T13:45:21.960Z,57.90
2023-04-08T13:47:50.173Z,58.04
2023-04-08T13:50:17.190Z,56.76
2023-04-08T13:52:46.554Z,56.05
2023-04-08T13:55:16.936Z,57.04
2023-04-08T13:57:47.118Z,56.63
2023-04-08T14:00:14.903Z,52.88
2023-04-08T14:02:43.032Z,54.94
2023-04-08T14:05:10.976Z,54.35
2023-04-08T14:07:38.544Z,55.67
2023-04-08T14:10:09.863Z,55.41
2023-04-08T14:12:37.225Z,55.55
2023-04-08T14:15:05.310Z,55.76
2023-04-08T14:17:36.089Z,55.61
2023-04-08T14:20:06.829Z,56.07
2023-04-08T14:22:34.004Z,55.56
2023-04-08T14:25:01.228Z,54.93
2023-04-08T14:27:30.123Z,54.25
2023-04-08T14:29:56.759Z,54.27
2023-04-08T14:32:25.641Z,53.85
2023-04-08T14:34:52.314Z,53.87
2023-04-08T14:37:21.112Z,53.75
2023-04-08T14:39:47.678Z,53.87
2023-04-08T14:42:17.202Z,53.51
2023-04-08T14:44:44.322Z,53.42
2023-04-08T14:47:12.343Z,52.99
2023-04-08T14:49:39.802Z,53.16
2023-04-08T14:52:06.427Z,52.73
2023-04-08T14:54:33.076Z,53.26
2023-04-08T14:56:59.612Z,53.12
2023-04-08T14:59:26.228Z,52.94
2023-04-08T15:01:52.925Z,52.89
2023-04-08T15:04:19.541Z,52.64
2023-04-08T15:06:46.223Z,52.64
2023-04-08T15:09:13.140Z,50.17
2023-04-08T15:11:39.741Z,50.38
2023-04-08T15:14:06.372Z,50.52
2023-04-08T15:16:33.198Z,50.33
2023-04-08T15:19:00.574Z,50.76
2023-04-08T15:21:27.378Z,50.45
2023-04-08T15:23:55.996Z,51.03
2023-04-08T15:26:25.439Z,51.11
2023-04-08T15:28:54.909Z,50.69
2023-04-08T15:31:22.441Z,50.76
2023-04-08T15:33:50.100Z,50.93
2023-04-08T15:36:21.272Z,50.40
2023-04-08T15:38:50.194Z,50.84
2023-04-08T15:41:21.726Z,50.67
2023-04-08T15:43:54.578Z,50.14
2023-04-08T15:46:22.822Z,50.62
2023-04-08T15:48:51.032Z,51.17
2023-04-08T15:51:18.271Z,50.73
2023-04-08T15:53:46.250Z,50.68
2023-04-08T15:56:16.767Z,51.12
2023-04-08T15:58:44.929Z,49.28
2023-04-08T16:01:12.518Z,50.42
2023-04-08T16:03:40.730Z,49.19
2023-04-08T16:06:10.334Z,49.24
2023-04-08T16:08:37.238Z,47.54
2023-04-08T16:11:08.860Z,48.70
2023-04-08T16:13:35.603Z,49.89
2023-04-08T16:16:02.888Z,50.26
2023-04-08T16:18:34.344Z,49.97
2023-04-08T16:21:04.659Z,50.11
2023-04-08T16:23:31.495Z,50.64
2023-04-08T16:25:58.181Z,51.41
2023-04-08T16:28:27.549Z,51.90
2023-04-08T16:30:54.729Z,51.78
2023-04-08T16:33:30.047Z,51.93
2023-04-08T16:36:01.483Z,52.21
2023-04-08T16:38:29.186Z,52.60
2023-04-08T16:40:59.871Z,52.68
2023-04-08T16:43:26.812Z,51.66
2023-04-08T16:45:54.855Z,52.32
2023-04-08T16:48:23.897Z,53.18
2023-04-08T16:50:52.494Z,53.27
2023-04-08T16:53:19.249Z,53.35
2023-04-08T16:55:47.334Z,53.87
2023-04-08T16:58:14.080Z,54.07
2023-04-08T17:00:43.703Z,54.21
2023-04-08T17:03:10.943Z,54.25
2023-04-08T17:05:41.739Z,54.86
2023-04-08T17:08:08.673Z,54.72
2023-04-08T17:10:35.218Z,55.14
2023-04-08T17:13:02.272Z,55.12
2023-04-08T17:15:31.548Z,55.65
2023-04-08T17:17:58.225Z,56.02
2023-04-08T17:20:26.517Z,56.15
2023-04-08T17:22:56.277Z,56.26
2023-04-08T17:25:23.960Z,56.58
2023-04-08T17:27:50.512Z,56.82
2023-04-08T17:30:17.177Z,57.06
2023-04-08T17:32:44.345Z,57.60
2023-04-08T17:35:11.858Z,57.68
2023-04-08T17:37:39.303Z,57.90
2023-04-08T17:40:08.032Z,58.09
2023-04-08T17:42:35.241Z,58.43
2023-04-08T17:45:03.124Z,58.91
2023-04-08T17:47:31.144Z,59.01
2023-04-08T17:49:58.547Z,59.32
2023-04-08T17:52:25.622Z,59.52
2023-04-08T17:54:54.024Z,59.76
2023-04-08T17:57:20.965Z,60.08
2023-04-08T17:59:48.449Z,60.04
2023-04-08T18:02:15.493Z,60.64
2023-04-08T18:04:43.691Z,60.98
2023-04-08T18:07:12.057Z,60.88
2023-04-08T18:09:39.032Z,61.14
2023-04-08T18:12:06.892Z,61.48
2023-04-08T18:14:36.104Z,61.69
2023-04-08T18:17:03.585Z,61.52
2023-04-08T18:19:30.535Z,62.20
2023-04-08T18:21:57.091Z,62.31
2023-04-08T18:24:24.092Z,63.06
2023-04-08T18:27:01.505Z,63.14
2023-04-08T18:29:30.416Z,63.24
2023-04-08T18:31:59.358Z,63.43
2023-04-08T18:34:26.711Z,64.02
2023-04-08T18:36:53.628Z,64.20
2023-04-08T18:39:20.474Z,64.46
2023-04-08T18:41:47.115Z,64.86
2023-04-08T18:44:13.802Z,65.26
2023-04-08T18:46:40.578Z,65.69
2023-04-08T18:49:07.215Z,65.80
2023-04-08T18:51:36.430Z,66.00
2023-04-08T18:54:03.113Z,66.70
2023-04-08T18:56:32.233Z,66.63
2023-04-08T18:58:58.801Z,66.66
2023-04-08T19:01:30.041Z,67.17
2023-04-08T19:03:56.905Z,67.54
2023-04-08T19:06:23.726Z,67.67
2023-04-08T19:08:50.380Z,67.76
2023-04-08T19:11:17.018Z,67.62
2023-04-08T19:13:45.902Z,68.26
2023-04-08T19:16:12.846Z,68.30
2023-04-08T19:18:41.672Z,68.26
2023-04-08T19:21:11.752Z,68.27
2023-04-08T19:23:38.395Z,68.30
2023-04-08T19:26:08.732Z,68.19
2023-04-08T19:28:37.740Z,68.25
2023-04-08T19:31:04.654Z,69.69
2023-04-08T19:33:31.394Z,69.00
2023-04-08T19:35:57.980Z,68.67
2023-04-08T19:38:26.954Z,68.48
2023-04-08T19:40:56.080Z,68.01
2023-04-08T19:43:22.855Z,67.91
2023-04-08T19:45:55.896Z,68.10
2023-04-08T19:48:26.113Z,68.19
2023-04-08T19:50:52.897Z,68.70
2023-04-08T19:53:19.507Z,68.07
2023-04-08T19:55:48.660Z,68.40
2023-04-08T19:58:16.015Z,68.73
2023-04-08T20:00:42.713Z,68.79
2023-04-08T20:03:09.550Z,68.96
2023-04-08T20:05:36.830Z,69.11
2023-04-08T20:08:03.830Z,69.30
2023-04-08T20:10:32.647Z,69.15
2023-04-08T20:12:59.279Z,69.55
2023-04-08T20:15:25.963Z,69.39
2023-04-08T20:17:53.328Z,69.62
2023-04-08T20:20:23.075Z,69.69
2023-04-08T20:22:50.420Z,69.73
2023-04-08T20:25:17.965Z,70.01
2023-04-08T20:27:44.691Z,70.51
2023-04-08T20:30:12.381Z,70.21
2023-04-08T20:32:39.009Z,70.20
2023-04-08T20:35:05.884Z,70.37
2023-04-08T20:37:35.715Z,70.61
2023-04-08T20:40:02.602Z,71.01
2023-04-08T20:42:29.264Z,70.96
2023-04-08T20:44:56.036Z,70.91
2023-04-08T20:47:22.675Z,71.33
2023-04-08T20:49:49.719Z,71.22
2023-04-08T20:52:16.513Z,71.68
2023-04-08T20:54:45.492Z,71.89
2023-04-08T20:57:12.126Z,72.03
2023-04-08T20:59:38.729Z,72.22
2023-04-08T21:02:06.255Z,72.23
2023-04-08T21:04:36.075Z,72.31
2023-04-08T21:07:02.977Z,72.74
2023-04-08T21:09:30.062Z,72.82
2023-04-08T21:11:56.760Z,73.12
2023-04-08T21:14:31.147Z,73.18
2023-04-08T21:16:58.468Z,73.14
2023-04-08T21:19:25.358Z,73.23
2023-04-08T21:21:52.004Z,73.48
2023-04-08T21:24:18.763Z,73.18
2023-04-08T21:26:45.540Z,73.51
2023-04-08T21:29:12.910Z,73.62
2023-04-08T21:31:41.282Z,73.64
2023-04-08T21:34:11.018Z,74.05
2023-04-08T21:36:37.874Z,76.72
2023-04-08T21:39:07.057Z,75.70
2023-04-08T21:41:33.777Z,75.69
2023-04-08T21:44:00.421Z,75.57
2023-04-08T21:46:27.100Z,75.30
2023-04-08T21:48:56.465Z,75.60
2023-04-08T21:51:23.160Z,75.38
2023-04-08T21:53:50.878Z,75.80
2023-04-08T21:56:18.643Z,75.71
2023-04-08T21:58:45.552Z,75.85
2023-04-08T22:01:12.191Z,75.85
2023-04-08T22:03:41.523Z,75.89
2023-04-08T22:06:12.686Z,75.96
2023-04-08T22:08:43.534Z,76.20
2023-04-08T22:11:10.257Z,75.98
2023-04-08T22:13:36.900Z,76.02
2023-04-08T22:16:06.089Z,76.45
2023-04-08T22:18:35.407Z,76.09
2023-04-08T22:21:02.096Z,76.06
2023-04-08T22:23:28.924Z,76.04
2023-04-08T22:25:55.794Z,76.14
2023-04-08T22:28:23.520Z,76.00
2023-04-08T22:30:50.256Z,76.34
2023-04-08T22:33:19.217Z,76.66
2023-04-08T22:35:45.878Z,76.65
2023-04-08T22:38:12.508Z,77.01
2023-04-08T22:40:39.270Z,76.78
2023-04-08T22:43:08.216Z,76.87
2023-04-08T22:45:37.555Z,76.88
2023-04-08T22:48:06.747Z,77.06
2023-04-08T22:50:38.344Z,76.79
2023-04-08T22:53:07.632Z,77.14
2023-04-08T22:55:34.274Z,76.95
2023-04-08T22:58:03.429Z,77.20
2023-04-08T23:00:30.712Z,76.96
2023-04-08T23:03:04.811Z,77.32
2023-04-08T23:05:33.778Z,77.08
2023-04-08T23:08:02.795Z,76.90
2023-04-08T23:10:29.495Z,77.18
2023-04-08T23:12:56.297Z,77.13
2023-04-08T23:15:23.215Z,77.23
2023-04-08T23:17:49.841Z,77.26
2023-04-08T23:20:16.614Z,77.38
2023-04-08T23:22:45.687Z,77.23
2023-04-08T23:25:12.331Z,77.21
2023-04-08T23:27:39.084Z,77.54
2023-04-08T23:30:06.530Z,77.60
2023-04-08T23:32:35.145Z,77.34
2023-04-08T23:35:02.731Z,77.68
2023-04-08T23:37:29.740Z,77.77
2023-04-08T23:39:56.381Z,77.68
2023-04-08T23:42:27.268Z,77.55
2023-04-08T23:44:54.966Z,77.61
2023-04-08T23:47:22.134Z,77.76
2023-04-08T23:49:49.691Z,77.61
2023-04-08T23:52:18.765Z,77.56
2023-04-08T23:54:50.342Z,77.70
2023-04-08T23:57:17.378Z,77.79
2023-04-08T23:59:44.124Z,77.43
